Time;durP1;ratioP1;P1;durP2;ratioP2;P2;SDS_P1;SDS_P2;PMS_P1;PMS_P2;Temp;Humidity;BMP_temperature;BMP_pressure;BME280_temperature;BME280_humidity;BME280_pressure;Samples;Min_cycle;Max_cycle;Signal;HPM_P1;HPM_P2
2022/01/05 00:00:18;;;;;;;5.55;0.90;;;3.90;99.90;;;;;;5034796;28;20049;-79
2022/01/05 00:02:44;;;;;;;6.78;1.15;;;3.80;99.90;;;;;;5017460;28;20535;-79
2022/01/05 00:05:10;;;;;;;9.32;0.90;;;3.80;99.90;;;;;;5034579;28;20401;-79
2022/01/05 00:07:36;;;;;;;9.52;0.70;;;3.70;99.90;;;;;;5034343;28;20095;-79
2022/01/05 00:10:03;;;;;;;7.93;0.73;;;3.70;99.90;;;;;;5034131;28;20081;-79
2022/01/05 00:12:28;;;;;;;13.95;1.70;;;3.60;99.90;;;;;;5034342;28;20081;-78
2022/01/05 00:14:54;;;;;;;10.57;0.90;;;3.60;99.90;;;;;;5033768;28;20099;-78
2022/01/05 00:17:20;;;;;;;10.55;0.93;;;3.50;99.90;;;;;;5034091;28;20045;-79
2022/01/05 00:19:45;;;;;;;12.68;1.60;;;3.60;99.90;;;;;;5033997;28;20045;-79
2022/01/05 00:22:11;;;;;;;12.90;1.27;;;3.50;99.90;;;;;;5033436;28;20042;-79
2022/01/05 00:24:37;;;;;;;12.73;1.50;;;3.50;99.90;;;;;;5033700;28;20416;-78
2022/01/05 00:27:04;;;;;;;13.18;1.73;;;3.50;99.90;;;;;;5033908;28;20056;-78
2022/01/05 00:29:30;;;;;;;11.10;1.25;;;3.50;99.90;;;;;;5017358;28;20045;-79
2022/01/05 00:31:56;;;;;;;13.35;1.20;;;3.50;99.90;;;;;;5017854;28;20042;-79
2022/01/05 00:34:21;;;;;;;15.18;1.30;;;3.50;99.90;;;;;;5017354;28;20400;-79
2022/01/05 00:36:47;;;;;;;11.40;1.13;;;3.50;99.90;;;;;;5033992;28;20459;-79
2022/01/05 00:39:13;;;;;;;11.35;1.63;;;3.50;99.90;;;;;;5033526;28;20042;-79
2022/01/05 00:41:38;;;;;;;12.55;1.10;;;3.50;99.90;;;;;;5033882;28;20132;-79
2022/01/05 00:44:04;;;;;;;9.48;1.50;;;3.70;99.90;;;;;;5033548;28;20048;-79
2022/01/05 00:46:30;;;;;;;15.32;1.52;;;3.60;99.90;;;;;;5033748;28;20096;-79
2022/01/05 00:48:56;;;;;;;14.32;2.63;;;3.60;99.90;;;;;;5000646;28;20049;-79
2022/01/05 00:51:21;;;;;;;12.43;1.50;;;3.60;99.90;;;;;;5016706;28;20049;-79
2022/01/05 00:53:47;;;;;;;11.65;1.42;;;3.50;99.90;;;;;;5033690;28;20077;-79
2022/01/05 00:56:13;;;;;;;8.20;1.38;;;3.50;99.90;;;;;;5033196;28;20055;-78
2022/01/05 00:58:38;;;;;;;13.68;1.27;;;3.50;99.90;;;;;;5033264;28;20049;-79
2022/01/05 01:01:04;;;;;;;11.68;1.27;;;3.60;99.90;;;;;;5033652;28;20096;-79
2022/01/05 01:03:30;;;;;;;12.45;1.55;;;3.60;99.90;;;;;;5032374;28;20520;-78
2022/01/05 01:05:58;;;;;;;12.82;1.17;;;3.50;99.90;;;;;;5033059;28;20064;-78
2022/01/05 01:08:24;;;;;;;18.50;1.70;;;3.60;99.90;;;;;;5032845;28;20049;-79
2022/01/05 01:10:50;;;;;;;19.95;2.00;;;3.60;99.90;;;;;;5049764;28;20045;-78
2022/01/05 01:13:17;;;;;;;15.15;1.30;;;3.60;99.90;;;;;;5032987;28;20049;-78
2022/01/05 01:15:47;;;;;;;19.45;2.10;;;3.60;99.90;;;;;;5033015;28;20483;-78
2022/01/05 01:18:14;;;;;;;16.95;2.05;;;3.60;99.90;;;;;;5033023;28;20045;-78
2022/01/05 01:20:40;;;;;;;12.48;1.52;;;3.60;99.90;;;;;;5016056;28;20041;-79
2022/01/05 01:23:07;;;;;;;13.52;1.40;;;3.70;99.90;;;;;;5032889;28;20055;-78
2022/01/05 01:25:33;;;;;;;14.07;1.60;;;3.70;99.90;;;;;;5032808;28;20045;-78
2022/01/05 01:27:59;;;;;;;14.00;1.60;;;3.70;99.90;;;;;;5016590;28;20432;-78
2022/01/05 01:30:25;;;;;;;17.77;1.80;;;3.70;99.90;;;;;;5049705;28;20045;-79
2022/01/05 01:32:50;;;;;;;18.77;2.88;;;3.70;99.90;;;;;;5016658;28;20099;-78
2022/01/05 01:35:16;;;;;;;13.93;2.10;;;3.60;99.90;;;;;;5000088;28;20042;-78
2022/01/05 01:37:42;;;;;;;10.85;1.30;;;3.70;99.90;;;;;;4983829;28;20576;-78
2022/01/05 01:40:08;;;;;;;16.60;2.45;;;3.70;99.90;;;;;;5032815;28;20362;-79
2022/01/05 01:42:35;;;;;;;16.35;2.10;;;3.80;99.60;;;;;;5031763;28;20096;-79
2022/01/05 01:45:01;;;;;;;16.33;1.67;;;3.80;99.60;;;;;;5016205;28;20090;-78
2022/01/05 01:47:27;;;;;;;14.55;1.55;;;3.90;99.30;;;;;;5032621;28;20041;-79
2022/01/05 01:49:52;;;;;;;10.02;1.40;;;3.90;99.20;;;;;;5032659;28;20079;-79
2022/01/05 01:52:18;;;;;;;15.15;1.52;;;3.90;99.10;;;;;;5032187;28;20057;-78
2022/01/05 01:54:44;;;;;;;16.77;2.65;;;3.90;98.80;;;;;;5032622;28;20044;-78
2022/01/05 01:57:11;;;;;;;11.68;1.42;;;4.00;98.80;;;;;;5016292;28;20041;-78
2022/01/05 01:59:37;;;;;;;13.75;1.85;;;4.00;98.70;;;;;;5016284;28;20220;-78
2022/01/05 02:02:03;;;;;;;15.85;1.60;;;4.00;98.80;;;;;;5032526;28;20033;-78
2022/01/05 02:04:29;;;;;;;19.38;2.03;;;4.00;98.70;;;;;;5031912;28;20088;-78
2022/01/05 02:06:55;;;;;;;16.13;2.05;;;4.00;98.70;;;;;;5049293;28;20172;-78
2022/01/05 02:09:21;;;;;;;13.82;1.60;;;4.00;98.70;;;;;;5034286;28;20132;-78
2022/01/05 02:11:46;;;;;;;15.38;1.95;;;4.00;98.70;;;;;;5036086;28;20488;-78
2022/01/05 02:14:12;;;;;;;12.77;1.95;;;4.00;98.80;;;;;;5036343;28;20389;-79
2022/01/05 02:16:42;;;;;;;16.75;1.60;;;4.10;98.90;;;;;;5019874;28;20080;-79
2022/01/05 02:19:08;;;;;;;13.38;1.65;;;4.10;99.00;;;;;;5036374;28;20481;-78
2022/01/05 02:21:37;;;;;;;17.13;2.20;;;4.20;99.00;;;;;;5035826;28;20099;-79
2022/01/05 02:24:05;;;;;;;19.67;1.75;;;4.10;99.10;;;;;;5035945;28;20064;-78
2022/01/05 02:26:31;;;;;;;19.17;1.88;;;4.10;99.30;;;;;;5036156;28;20124;-78
2022/01/05 02:28:57;;;;;;;20.10;2.15;;;4.10;99.20;;;;;;5019532;28;20045;-78
2022/01/05 02:31:23;;;;;;;17.83;2.20;;;4.20;99.30;;;;;;5036107;28;20095;-78
2022/01/05 02:33:49;;;;;;;10.15;1.70;;;4.10;99.30;;;;;;5036063;28;20525;-78
2022/01/05 02:36:17;;;;;;;13.38;1.60;;;4.10;99.20;;;;;;5019541;28;20452;-78
2022/01/05 02:38:42;;;;;;;13.82;1.70;;;4.10;99.30;;;;;;5035929;28;20103;-78
2022/01/05 02:41:10;;;;;;;17.67;2.53;;;4.10;99.20;;;;;;5036107;28;20041;-78
2022/01/05 02:43:37;;;;;;;16.98;1.95;;;4.10;99.10;;;;;;5035789;28;20103;-79
2022/01/05 02:46:04;;;;;;;20.33;2.47;;;4.20;99.20;;;;;;5035821;28;20136;-78
2022/01/05 02:48:32;;;;;;;17.75;1.63;;;4.20;99.10;;;;;;5019171;28;20052;-79
2022/01/05 02:50:59;;;;;;;10.98;1.42;;;4.30;99.20;;;;;;5034995;28;20050;-79
2022/01/05 02:53:25;;;;;;;14.98;1.80;;;4.30;99.10;;;;;;5035699;28;20138;-78
2022/01/05 02:55:52;;;;;;;9.75;2.00;;;4.20;99.10;;;;;;5019723;28;20392;-78
2022/01/05 02:58:18;;;;;;;16.42;1.45;;;4.20;99.10;;;;;;5036183;28;20370;-78
2022/01/05 03:00:44;;;;;;;19.50;2.33;;;4.30;99.30;;;;;;5035506;28;20393;-78
2022/01/05 03:03:10;;;;;;;21.10;2.33;;;4.20;99.20;;;;;;5018585;28;20413;-78
2022/01/05 03:05:36;;;;;;;10.40;1.50;;;4.20;99.20;;;;;;5036097;28;20038;-78
2022/01/05 03:08:03;;;;;;;13.85;1.77;;;4.20;99.30;;;;;;5035820;28;20049;-78
2022/01/05 03:10:28;;;;;;;17.83;2.22;;;4.20;99.40;;;;;;5035051;28;20046;-78
2022/01/05 03:12:54;;;;;;;23.40;2.03;;;4.20;99.30;;;;;;5035290;28;20055;-78
2022/01/05 03:15:20;;;;;;;22.88;2.08;;;4.20;99.30;;;;;;5035261;28;20056;-78
2022/01/05 03:17:45;;;;;;;19.52;2.10;;;4.20;99.50;;;;;;5051826;28;20542;-78
2022/01/05 03:20:13;;;;;;;15.32;1.80;;;4.30;99.30;;;;;;5034146;28;20099;-79
2022/01/05 03:22:40;;;;;;;14.75;2.45;;;4.20;99.30;;;;;;5035007;28;20124;-78
2022/01/05 03:25:07;;;;;;;17.02;2.22;;;4.30;99.30;;;;;;5035171;28;20046;-78
2022/01/05 03:27:34;;;;;;;20.50;2.60;;;4.40;99.40;;;;;;5035848;28;20056;-78
2022/01/05 03:30:00;;;;;;;13.90;1.90;;;4.30;99.40;;;;;;5035032;28;20111;-78
2022/01/05 03:32:34;;;;;;;19.13;2.08;;;4.50;99.50;;;;;;5034673;28;20111;-78
2022/01/05 03:34:59;;;;;;;12.93;1.50;;;4.50;99.40;;;;;;5035033;28;20412;-78
2022/01/05 03:37:25;;;;;;;10.98;1.63;;;4.60;99.50;;;;;;5018465;28;20046;-78
2022/01/05 03:39:51;;;;;;;22.00;2.35;;;4.60;99.40;;;;;;5018346;28;20045;-78
2022/01/05 03:42:16;;;;;;;16.67;1.75;;;4.70;99.40;;;;;;5034635;28;20046;-78
2022/01/05 03:44:42;;;;;;;19.02;2.47;;;4.70;99.70;;;;;;5034484;28;20041;-78
2022/01/05 03:47:08;;;;;;;20.13;2.20;;;4.70;99.70;;;;;;5018285;28;20056;-78
2022/01/05 03:49:33;;;;;;;15.05;2.22;;;4.80;99.60;;;;;;5034607;28;20460;-78
2022/01/05 03:52:00;;;;;;;14.45;1.90;;;4.80;99.70;;;;;;5034184;28;20049;-78
2022/01/05 03:54:26;;;;;;;19.75;2.60;;;4.70;99.80;;;;;;5034433;28;20128;-78
2022/01/05 03:56:52;;;;;;;15.85;1.80;;;4.70;99.80;;;;;;5034550;28;20100;-78
2022/01/05 03:59:17;;;;;;;17.15;1.77;;;4.70;99.90;;;;;;5017701;28;20096;-78
2022/01/05 04:01:43;;;;;;;18.30;1.80;;;4.70;99.90;;;;;;5034373;28;20127;-78
2022/01/05 04:04:09;;;;;;;11.13;1.75;;;4.70;99.90;;;;;;5034206;28;20060;-78
2022/01/05 04:06:34;;;;;;;15.88;1.90;;;4.80;99.90;;;;;;5034362;28;20080;-78
2022/01/05 04:09:00;;;;;;;17.70;2.30;;;4.80;99.90;;;;;;5034354;28;20107;-78
2022/01/05 04:11:26;;;;;;;13.10;1.77;;;4.70;99.90;;;;;;5034244;28;20063;-78
2022/01/05 04:13:51;;;;;;;18.05;2.75;;;4.80;99.90;;;;;;5017765;28;20054;-78
2022/01/05 04:16:17;;;;;;;13.25;1.45;;;4.80;99.90;;;;;;5034146;28;20061;-78
2022/01/05 04:18:42;;;;;;;21.05;2.03;;;4.80;99.90;;;;;;5034978;28;20128;-78
2022/01/05 04:21:08;;;;;;;15.05;1.73;;;4.80;99.90;;;;;;5033704;28;20049;-78
2022/01/05 04:23:34;;;;;;;20.77;1.48;;;4.80;99.90;;;;;;5017335;28;20050;-78
2022/01/05 04:25:59;;;;;;;15.60;1.30;;;4.90;99.90;;;;;;5033941;28;20196;-78
2022/01/05 04:28:25;;;;;;;13.43;1.40;;;4.90;99.90;;;;;;5033911;28;20041;-78
2022/01/05 04:30:51;;;;;;;10.32;1.33;;;4.90;99.90;;;;;;5033434;28;20133;-78
2022/01/05 04:33:16;;;;;;;15.18;1.48;;;4.90;99.90;;;;;;5033903;28;20049;-78
2022/01/05 04:35:42;;;;;;;9.25;1.40;;;4.90;99.90;;;;;;5033735;28;20069;-78
2022/01/05 04:38:08;;;;;;;13.35;1.40;;;4.80;99.90;;;;;;5033618;28;20045;-78
2022/01/05 04:40:33;;;;;;;17.70;1.33;;;4.80;99.90;;;;;;5033836;28;20056;-78
2022/01/05 04:42:59;;;;;;;19.80;2.08;;;4.70;99.90;;;;;;5033466;28;20128;-78
2022/01/05 04:45:25;;;;;;;14.43;1.50;;;4.70;99.90;;;;;;5033488;28;20053;-78
2022/01/05 04:47:50;;;;;;;14.57;2.05;;;4.60;99.90;;;;;;5033719;28;20515;-78
2022/01/05 04:50:18;;;;;;;14.00;1.30;;;4.60;99.90;;;;;;5033480;28;20424;-78
2022/01/05 04:52:43;;;;;;;15.57;1.58;;;4.60;99.90;;;;;;5033365;28;20055;-78
2022/01/05 04:55:09;;;;;;;22.45;1.70;;;4.60;99.90;;;;;;5016660;28;20045;-78
2022/01/05 04:57:35;;;;;;;12.38;1.42;;;4.60;99.90;;;;;;5048398;28;20064;-80
2022/01/05 05:00:01;;;;;;;11.85;1.52;;;4.60;99.90;;;;;;5014015;28;20045;-79
2022/01/05 05:02:26;;;;;;;12.43;2.15;;;4.70;99.90;;;;;;5015755;28;20041;-78
2022/01/05 05:04:52;;;;;;;11.32;1.73;;;4.70;99.90;;;;;;5032438;28;20089;-78
2022/01/05 05:07:18;;;;;;;18.15;1.90;;;4.60;99.90;;;;;;5016731;28;20491;-78
2022/01/05 05:09:44;;;;;;;13.85;2.35;;;4.70;99.90;;;;;;5016787;28;20049;-78
2022/01/05 05:12:10;;;;;;;17.63;1.90;;;4.70;99.90;;;;;;5016558;28;20547;-78
2022/01/05 05:14:36;;;;;;;22.98;3.03;;;4.70;99.90;;;;;;5032718;28;20130;-78
2022/01/05 05:17:02;;;;;;;19.48;2.13;;;4.60;99.90;;;;;;5033225;28;20143;-78
2022/01/05 05:19:28;;;;;;;19.30;2.05;;;4.60;99.90;;;;;;5033353;28;20493;-78
2022/01/05 05:21:54;;;;;;;19.33;1.92;;;4.70;99.90;;;;;;5032401;28;20049;-78
2022/01/05 05:24:20;;;;;;;13.75;1.83;;;4.60;99.90;;;;;;5032933;28;20052;-78
2022/01/05 05:26:45;;;;;;;16.60;2.08;;;4.70;99.90;;;;;;5032855;28;20057;-78
2022/01/05 05:29:11;;;;;;;19.90;1.80;;;4.80;99.90;;;;;;5032896;28;20041;-78
2022/01/05 05:31:37;;;;;;;16.70;1.85;;;4.80;99.90;;;;;;5000039;28;20045;-78
2022/01/05 05:34:02;;;;;;;26.30;2.40;;;4.80;99.90;;;;;;5032838;28;20527;-78
2022/01/05 05:36:28;;;;;;;25.85;2.90;;;4.80;99.90;;;;;;5032853;28;20473;-78
2022/01/05 05:38:54;;;;;;;24.55;2.42;;;4.80;99.90;;;;;;5032773;28;20046;-78
2022/01/05 05:41:20;;;;;;;22.92;2.60;;;4.80;99.90;;;;;;5032800;28;20065;-78
2022/01/05 05:43:48;;;;;;;20.48;2.53;;;4.80;99.90;;;;;;5032336;28;20052;-78
2022/01/05 05:46:13;;;;;;;14.48;2.25;;;4.80;99.90;;;;;;5016777;28;20099;-77
2022/01/05 05:48:39;;;;;;;21.58;2.40;;;4.80;99.90;;;;;;5032435;28;20054;-77
2022/01/05 05:51:05;;;;;;;25.00;3.13;;;4.80;99.90;;;;;;5032248;28;20046;-77
2022/01/05 05:53:31;;;;;;;18.40;2.45;;;4.70;99.90;;;;;;5032679;28;20049;-77
2022/01/05 05:55:56;;;;;;;25.40;2.78;;;4.70;99.90;;;;;;5016164;28;20057;-77
2022/01/05 05:58:22;;;;;;;22.15;2.80;;;4.60;99.90;;;;;;5033025;28;20049;-77
2022/01/05 06:00:47;;;;;;;29.77;2.90;;;4.60;99.90;;;;;;5015881;28;20099;-77
2022/01/05 06:03:13;;;;;;;23.35;2.60;;;4.60;99.90;;;;;;5032581;28;20071;-77
2022/01/05 06:05:39;;;;;;;29.60;2.67;;;4.60;99.90;;;;;;5032682;28;20475;-77
2022/01/05 06:08:04;;;;;;;29.48;2.75;;;4.60;99.90;;;;;;5016110;28;20053;-77
2022/01/05 06:10:30;;;;;;;21.65;2.85;;;4.60;99.90;;;;;;5032499;28;20080;-77
2022/01/05 06:12:56;;;;;;;22.52;2.95;;;4.70;99.90;;;;;;5032610;28;20117;-77
2022/01/05 06:15:22;;;;;;;20.77;2.50;;;4.60;99.90;;;;;;5032465;28;20052;-77
2022/01/05 06:17:47;;;;;;;13.60;2.28;;;4.70;99.90;;;;;;5032485;28;20056;-77
2022/01/05 06:20:13;;;;;;;18.75;2.22;;;4.70;99.90;;;;;;5032494;28;20052;-77
2022/01/05 06:22:41;;;;;;;19.52;2.05;;;4.60;99.90;;;;;;5031781;28;20532;-77
2022/01/05 06:25:08;;;;;;;13.73;1.50;;;4.60;99.90;;;;;;5032328;28;20045;-76
2022/01/05 06:27:34;;;;;;;24.70;1.77;;;4.50;99.90;;;;;;5032254;28;20504;-77
2022/01/05 06:30:04;;;;;;;19.05;2.28;;;4.50;99.90;;;;;;5032692;28;20100;-77
2022/01/05 06:32:30;;;;;;;27.25;2.30;;;4.50;99.90;;;;;;5032323;28;20507;-77
2022/01/05 06:34:56;;;;;;;19.00;2.13;;;4.70;99.90;;;;;;5032275;28;20118;-77
2022/01/05 06:37:21;;;;;;;20.17;2.28;;;4.70;99.90;;;;;;5015975;28;20484;-77
2022/01/05 06:39:47;;;;;;;18.60;2.45;;;4.80;99.90;;;;;;5032239;28;20071;-77
2022/01/05 06:42:13;;;;;;;16.65;2.40;;;4.90;99.90;;;;;;5032271;28;20041;-77
2022/01/05 06:44:38;;;;;;;24.60;3.03;;;4.90;99.90;;;;;;5032385;28;20393;-77
2022/01/05 06:47:04;;;;;;;25.23;2.90;;;4.90;99.90;;;;;;5032421;28;20177;-77
2022/01/05 06:49:30;;;;;;;18.98;3.22;;;4.90;99.90;;;;;;5032104;28;20061;-76
2022/01/05 06:51:56;;;;;;;20.75;2.15;;;5.00;99.90;;;;;;5015199;28;20124;-77
2022/01/05 06:54:21;;;;;;;21.88;2.47;;;4.90;99.90;;;;;;5032279;28;20369;-77
2022/01/05 06:56:47;;;;;;;15.98;2.17;;;4.90;99.90;;;;;;5035540;28;20076;-77
2022/01/05 06:59:14;;;;;;;16.40;1.63;;;4.90;99.90;;;;;;5035569;28;20366;-77
2022/01/05 07:01:40;;;;;;;19.20;1.60;;;5.00;99.90;;;;;;5035333;28;20500;-77
2022/01/05 07:04:05;;;;;;;9.73;0.93;;;5.00;99.90;;;;;;5018867;28;20057;-77
2022/01/05 07:06:31;;;;;;;19.85;2.22;;;5.00;99.90;;;;;;5035586;28;20073;-77
2022/01/05 07:08:57;;;;;;;18.52;2.00;;;5.00;99.90;;;;;;5035330;28;20115;-77
2022/01/05 07:11:22;;;;;;;20.10;1.52;;;5.00;99.90;;;;;;5018893;28;20056;-77
2022/01/05 07:13:48;;;;;;;16.60;1.52;;;5.00;99.90;;;;;;5035193;28;20085;-77
2022/01/05 07:16:14;;;;;;;12.60;1.35;;;5.00;99.90;;;;;;5018849;28;20133;-77
2022/01/05 07:18:40;;;;;;;10.75;1.30;;;5.00;99.90;;;;;;5035021;28;20544;-77
2022/01/05 07:21:05;;;;;;;13.82;1.35;;;5.00;99.90;;;;;;5018151;28;20085;-76
2022/01/05 07:23:31;;;;;;;17.65;1.52;;;4.90;99.90;;;;;;5034916;28;20041;-77
2022/01/05 07:25:56;;;;;;;6.90;1.27;;;4.90;99.90;;;;;;5035097;28;20132;-77
2022/01/05 07:28:22;;;;;;;15.35;1.40;;;4.90;99.90;;;;;;5018505;28;20053;-77
2022/01/05 07:30:48;;;;;;;11.88;1.05;;;4.90;99.90;;;;;;5035085;28;20068;-77
2022/01/05 07:33:13;;;;;;;12.82;1.40;;;4.90;99.90;;;;;;5035011;28;20088;-77
2022/01/05 07:35:39;;;;;;;15.00;1.13;;;4.90;99.90;;;;;;5034929;28;20060;-76
2022/01/05 07:38:06;;;;;;;20.55;2.47;;;5.00;99.90;;;;;;5034852;28;20045;-77
2022/01/05 07:40:32;;;;;;;11.73;1.13;;;5.00;99.90;;;;;;5034857;28;20045;-77
2022/01/05 07:42:57;;;;;;;20.88;1.45;;;5.00;99.90;;;;;;5034604;28;20052;-77
2022/01/05 07:45:23;;;;;;;16.85;1.52;;;5.00;99.90;;;;;;5034794;28;20095;-77
2022/01/05 07:47:49;;;;;;;16.42;1.85;;;5.00;99.90;;;;;;5035058;28;20497;-76
2022/01/05 07:50:15;;;;;;;23.60;1.70;;;5.10;99.90;;;;;;5018338;28;20053;-74
2022/01/05 07:52:42;;;;;;;18.25;1.88;;;5.00;99.90;;;;;;5035219;28;20539;-74
2022/01/05 07:55:08;;;;;;;21.33;2.17;;;5.00;99.90;;;;;;5034559;28;20049;-76
2022/01/05 07:57:35;;;;;;;12.43;1.70;;;5.10;99.90;;;;;;5034514;28;20046;-75
2022/01/05 08:00:01;;;;;;;14.13;1.85;;;5.10;99.90;;;;;;5034474;28;20057;-73
2022/01/05 08:02:26;;;;;;;21.15;2.05;;;5.20;99.90;;;;;;5017719;28;20045;-73
2022/01/05 08:04:52;;;;;;;19.42;1.75;;;5.30;99.90;;;;;;5017072;28;20041;-73
2022/01/05 08:07:18;;;;;;;28.27;2.35;;;5.40;99.90;;;;;;5034244;28;20041;-74
2022/01/05 08:09:43;;;;;;;22.20;2.75;;;5.40;99.90;;;;;;5034193;28;20053;-74
2022/01/05 08:12:09;;;;;;;26.85;2.40;;;5.30;99.90;;;;;;5034579;28;20194;-75
2022/01/05 08:14:35;;;;;;;25.33;2.55;;;5.20;99.90;;;;;;5034071;28;20049;-73
2022/01/05 08:17:01;;;;;;;31.88;2.85;;;5.30;99.90;;;;;;5033836;28;20172;-74
2022/01/05 08:19:26;;;;;;;29.00;2.28;;;5.50;99.90;;;;;;5034014;28;20052;-73
2022/01/05 08:21:52;;;;;;;28.05;2.15;;;5.60;99.90;;;;;;5033502;28;20049;-74
2022/01/05 08:24:18;;;;;;;24.38;2.28;;;5.50;99.90;;;;;;5033866;28;20045;-73
2022/01/05 08:26:43;;;;;;;17.52;1.70;;;5.50;99.90;;;;;;5033988;28;20052;-73
2022/01/05 08:29:09;;;;;;;17.45;1.55;;;5.60;99.90;;;;;;5033874;28;20061;-73
2022/01/05 08:31:35;;;;;;;19.50;1.60;;;5.50;99.90;;;;;;5033754;28;20404;-73
2022/01/05 08:34:00;;;;;;;18.10;2.17;;;5.60;99.90;;;;;;5033812;28;20457;-73
2022/01/05 08:36:26;;;;;;;17.48;1.63;;;5.70;99.90;;;;;;5033751;28;20511;-74
2022/01/05 08:38:52;;;;;;;15.25;1.50;;;5.60;99.90;;;;;;5034051;28;20132;-74
2022/01/05 08:41:18;;;;;;;18.38;1.73;;;5.60;99.90;;;;;;5034868;28;20473;-72
2022/01/05 08:43:43;;;;;;;20.92;1.80;;;5.70;99.90;;;;;;5023301;28;20045;-74
2022/01/05 08:46:09;;;;;;;30.55;1.98;;;5.70;99.90;;;;;;5039692;28;20046;-71
2022/01/05 08:48:36;;;;;;;23.25;2.35;;;5.70;99.90;;;;;;5034487;28;20049;-72
2022/01/05 08:51:02;;;;;;;21.75;2.33;;;5.80;99.90;;;;;;5033151;28;20049;-72
2022/01/05 08:53:27;;;;;;;22.70;1.83;;;5.80;99.90;;;;;;5034459;28;20053;-71
2022/01/05 08:55:53;;;;;;;16.65;2.13;;;5.80;99.90;;;;;;5033104;28;20102;-72
2022/01/05 08:58:20;;;;;;;39.60;3.13;;;5.90;99.90;;;;;;5033350;28;20041;-72
2022/01/05 09:00:48;;;;;;;23.25;2.47;;;6.00;99.90;;;;;;5034241;28;20046;-72
2022/01/05 09:03:15;;;;;;;34.60;2.67;;;6.00;99.90;;;;;;5032620;28;20072;-72
2022/01/05 09:05:41;;;;;;;25.85;2.13;;;6.10;99.90;;;;;;5017298;28;20057;-72
2022/01/05 09:08:06;;;;;;;26.00;2.50;;;6.10;99.90;;;;;;5016782;28;20397;-72
2022/01/05 09:10:33;;;;;;;24.27;2.90;;;6.20;99.90;;;;;;5034283;28;20045;-72
2022/01/05 09:12:59;;;;;;;25.70;3.00;;;6.10;99.90;;;;;;5035298;28;20038;-71
2022/01/05 09:15:25;;;;;;;18.90;2.47;;;6.10;99.90;;;;;;5033098;28;20091;-72
2022/01/05 09:17:52;;;;;;;17.67;2.28;;;6.10;99.90;;;;;;5032611;28;20107;-72
2022/01/05 09:20:18;;;;;;;20.00;2.42;;;6.10;99.90;;;;;;5033940;28;20366;-71
2022/01/05 09:22:44;;;;;;;26.42;2.80;;;6.20;99.90;;;;;;5032448;28;20092;-71
2022/01/05 09:25:11;;;;;;;23.00;2.28;;;6.10;99.90;;;;;;5032611;28;20045;-72
2022/01/05 09:27:38;;;;;;;28.08;3.03;;;6.10;99.90;;;;;;5033776;28;20049;-72
2022/01/05 09:30:06;;;;;;;18.02;2.22;;;6.10;99.90;;;;;;5032881;28;20539;-71
2022/01/05 09:32:32;;;;;;;13.15;1.92;;;6.00;99.90;;;;;;5033865;28;20128;-71
2022/01/05 09:34:58;;;;;;;24.13;2.85;;;6.10;99.90;;;;;;5029081;28;20547;-72
2022/01/05 09:37:31;;;;;;;25.90;1.90;;;6.20;99.90;;;;;;5030795;28;20046;-73
2022/01/05 09:42:43;;;;;;;23.73;1.85;;;6.30;99.90;;;;;;5032140;28;20049;-74
2022/01/05 09:45:19;;;;;;;15.43;1.98;;;6.40;99.90;;;;;;5032420;28;20136;-72
2022/01/05 09:48:16;;;;;;;15.50;2.28;;;6.40;99.90;;;;;;5049500;28;20060;-72
2022/01/05 09:51:06;;;;;;;15.80;1.75;;;6.50;99.90;;;;;;5048859;28;20046;-73
2022/01/05 09:53:33;;;;;;;19.55;2.40;;;6.50;99.90;;;;;;5016566;28;20057;-72
2022/01/05 09:55:59;;;;;;;19.75;2.42;;;6.50;99.90;;;;;;5066145;28;20100;-73
2022/01/05 09:58:27;;;;;;;19.52;2.28;;;6.50;99.90;;;;;;5032778;28;20049;-73
2022/01/05 10:00:53;;;;;;;28.08;2.30;;;6.60;99.90;;;;;;5065830;28;20054;-72
2022/01/05 10:03:21;;;;;;;17.63;1.80;;;6.60;99.90;;;;;;5048773;28;20070;-72
2022/01/05 10:05:46;;;;;;;18.25;2.40;;;6.80;99.90;;;;;;5033458;28;20080;-72
2022/01/05 10:08:12;;;;;;;22.33;2.20;;;6.80;99.90;;;;;;5049067;28;20050;-73
2022/01/05 10:10:40;;;;;;;23.83;2.10;;;6.90;99.90;;;;;;5033462;28;20041;-73
2022/01/05 10:13:06;;;;;;;20.00;1.75;;;6.90;99.90;;;;;;5065867;28;20067;-73
2022/01/05 10:15:31;;;;;;;15.77;1.88;;;7.00;99.90;;;;;;5048810;28;20049;-73
2022/01/05 10:18:23;;;;;;;16.38;2.13;;;7.00;99.90;;;;;;5032528;28;20055;-72
2022/01/05 10:20:55;;;;;;;21.00;1.90;;;7.10;99.90;;;;;;5031539;28;20076;-73
2022/01/05 10:23:34;;;;;;;21.75;1.80;;;7.20;99.90;;;;;;5033194;28;20552;-73
2022/01/05 10:26:24;;;;;;;19.13;2.25;;;7.30;99.90;;;;;;5048937;28;20057;-72
2022/01/05 10:28:52;;;;;;;29.95;2.92;;;7.30;99.90;;;;;;5048856;28;20055;-72
2022/01/05 10:31:29;;;;;;;19.45;2.05;;;7.30;99.90;;;;;;5036459;28;20041;-73
2022/01/05 10:33:55;;;;;;;18.25;1.77;;;7.30;99.90;;;;;;5036154;28;20472;-73
2022/01/05 10:36:21;;;;;;;17.75;2.05;;;7.30;99.90;;;;;;5037010;28;20049;-73
2022/01/05 10:38:58;;;;;;;18.95;2.22;;;7.40;99.90;;;;;;5068881;28;20091;-72
2022/01/05 10:41:26;;;;;;;19.88;1.65;;;7.50;99.90;;;;;;5036295;28;20388;-82
2022/01/05 10:44:25;;;;;;;17.73;1.67;;;7.50;99.90;;;;;;5052321;28;20128;-81
2022/01/05 10:46:56;;;;;;;23.88;2.33;;;7.30;99.90;;;;;;5001870;28;20135;-75
2022/01/05 10:49:35;;;;;;;18.83;2.33;;;7.50;99.90;;;;;;5033839;28;20562;-75
2022/01/05 10:52:29;;;;;;;17.00;2.05;;;7.70;99.90;;;;;;5028165;28;20058;-75
2022/01/05 10:55:16;;;;;;;21.63;1.75;;;7.80;99.90;;;;;;5015973;28;20041;-76
2022/01/05 10:58:02;;;;;;;18.45;2.67;;;7.80;99.90;;;;;;5019984;28;20483;-72
2022/01/05 11:00:37;;;;;;;22.05;2.88;;;7.70;99.90;;;;;;5051449;28;20103;-75
2022/01/05 11:03:19;;;;;;;25.75;2.33;;;7.80;99.90;;;;;;5034697;28;20076;-76
2022/01/05 11:06:03;;;;;;;24.67;2.60;;;7.80;99.90;;;;;;5015848;28;20058;-76
2022/01/05 11:08:31;;;;;;;17.05;2.20;;;7.80;99.90;;;;;;5015397;28;20490;-76
2022/01/05 11:10:58;;;;;;;31.35;3.65;;;7.80;99.90;;;;;;5015577;28;20060;-76
2022/01/05 11:13:26;;;;;;;30.05;3.30;;;7.80;99.90;;;;;;4999019;28;20093;-75
2022/01/05 11:15:59;;;;;;;26.23;2.58;;;7.70;99.90;;;;;;5034043;28;20485;-78
2022/01/05 11:18:29;;;;;;;20.15;2.63;;;7.80;99.90;;;;;;5038078;28;20060;-76
2022/01/05 11:21:04;;;;;;;30.33;2.88;;;7.80;99.90;;;;;;5030167;28;20079;-74
2022/01/05 11:23:32;;;;;;;28.70;2.93;;;7.80;99.90;;;;;;5012877;28;20556;-75
2022/01/05 11:26:00;;;;;;;24.27;2.58;;;7.80;99.90;;;;;;5026536;28;20107;-74
2022/01/05 11:28:27;;;;;;;29.17;2.95;;;7.80;99.90;;;;;;5034841;28;20103;-74
2022/01/05 11:30:55;;;;;;;34.63;3.40;;;7.90;99.90;;;;;;5032545;28;20099;-75
2022/01/05 11:33:21;;;;;;;31.48;3.83;;;8.00;99.90;;;;;;5015040;28;20085;-76
2022/01/05 11:35:48;;;;;;;31.80;2.60;;;8.10;99.90;;;;;;5032008;28;20451;-74
2022/01/05 11:38:14;;;;;;;33.25;3.35;;;8.10;99.90;;;;;;5018254;28;20046;-75
2022/01/05 11:40:47;;;;;;;24.52;3.22;;;8.10;99.90;;;;;;5017786;28;20049;-75
2022/01/05 11:43:35;;;;;;;21.92;2.92;;;8.20;99.90;;;;;;5014750;28;20042;-76
2022/01/05 11:46:15;;;;;;;29.92;3.38;;;8.30;99.90;;;;;;5015040;28;20441;-77
2022/01/05 11:49:00;;;;;;;25.33;3.38;;;8.60;99.90;;;;;;5014633;28;20122;-75
2022/01/05 11:51:41;;;;;;;22.90;3.53;;;8.80;99.80;;;;;;5022096;28;20115;-78
2022/01/05 11:54:21;;;;;;;29.52;3.28;;;8.90;99.70;;;;;;5036334;28;20057;-81
2022/01/05 11:56:53;;;;;;;24.25;2.92;;;9.00;99.70;;;;;;5034726;28;20072;-75
2022/01/05 11:59:36;;;;;;;26.33;2.65;;;9.00;99.50;;;;;;5068057;28;20056;-74
2022/01/05 12:02:17;;;;;;;18.83;2.78;;;9.00;99.60;;;;;;5034367;28;20419;-75
2022/01/05 12:04:56;;;;;;;21.20;3.10;;;9.00;99.70;;;;;;5035441;28;20369;-75
2022/01/05 12:07:41;;;;;;;20.67;2.65;;;8.70;99.50;;;;;;5034380;28;20053;-74
2022/01/05 12:10:21;;;;;;;21.15;2.15;;;8.70;99.60;;;;;;5034183;28;20516;-75
2022/01/05 12:13:04;;;;;;;20.95;2.50;;;8.70;99.50;;;;;;5018045;28;20041;-74
2022/01/05 12:15:43;;;;;;;21.73;2.78;;;8.80;99.30;;;;;;5029863;28;20095;-76
2022/01/05 12:18:10;;;;;;;15.07;2.20;;;9.10;99.00;;;;;;5013765;28;20042;-77
2022/01/05 12:20:39;;;;;;;20.52;2.30;;;9.30;99.00;;;;;;5032552;28;20057;-78
2022/01/05 12:23:24;;;;;;;14.77;2.33;;;9.50;98.90;;;;;;5033190;28;20080;-77
2022/01/05 12:26:07;;;;;;;11.70;1.77;;;9.20;98.10;;;;;;5034441;28;20061;-77
2022/01/05 12:28:38;;;;;;;19.58;2.05;;;8.80;98.00;;;;;;5034312;28;20057;-74
2022/01/05 12:31:06;;;;;;;20.65;2.60;;;8.60;98.20;;;;;;5017091;28;20057;-75
2022/01/05 12:33:49;;;;;;;20.00;2.08;;;8.40;98.30;;;;;;5034803;28;20046;-80
2022/01/05 12:36:37;;;;;;;18.63;2.35;;;8.50;98.50;;;;;;5034228;28;20136;-81
2022/01/05 12:39:07;;;;;;;24.23;2.78;;;8.30;98.60;;;;;;5033790;28;20068;-82
2022/01/05 12:41:40;;;;;;;23.58;1.98;;;8.30;98.60;;;;;;5033896;28;20385;-82
2022/01/05 12:44:30;;;;;;;18.33;2.17;;;8.60;98.70;;;;;;5033336;28;20037;-81
2022/01/05 12:46:57;;;;;;;22.83;2.75;;;8.70;98.40;;;;;;5033880;28;20049;-77
2022/01/05 12:49:31;;;;;;;16.60;1.75;;;9.00;98.40;;;;;;5033521;28;20235;-81
2022/01/05 12:52:14;;;;;;;15.45;2.35;;;9.10;98.10;;;;;;5032686;28;20049;-81
2022/01/05 12:54:45;;;;;;;23.52;2.63;;;8.80;98.40;;;;;;5033507;28;20049;-81